sensor_id;sensor_type;location;lat;lon;timestamp;P1;durP1;ratioP1;P2;durP2;ratioP2
27199;SDS011;14714;48.106;11.546;2023-07-13T00:01:54;4.68;;;3.38;;
27199;SDS011;14714;48.106;11.546;2023-07-13T00:04:21;4.93;;;3.35;;
27199;SDS011;14714;48.106;11.546;2023-07-13T00:06:52;4.28;;;3.10;;
27199;SDS011;14714;48.106;11.546;2023-07-13T00:09:20;5.03;;;3.28;;
27199;SDS011;14714;48.106;11.546;2023-07-13T00:11:52;4.63;;;3.70;;
27199;SDS011;14714;48.106;11.546;2023-07-13T00:14:21;4.00;;;2.85;;
27199;SDS011;14714;48.106;11.546;2023-07-13T00:16:48;3.78;;;3.40;;
27199;SDS011;14714;48.106;11.546;2023-07-13T00:19:15;4.15;;;3.10;;
27199;SDS011;14714;48.106;11.546;2023-07-13T00:21:42;6.22;;;3.20;;
27199;SDS011;14714;48.106;11.546;2023-07-13T00:24:13;4.90;;;3.17;;
27199;SDS011;14714;48.106;11.546;2023-07-13T00:26:43;6.25;;;3.40;;
27199;SDS011;14714;48.106;11.546;2023-07-13T00:29:12;3.85;;;2.95;;
27199;SDS011;14714;48.106;11.546;2023-07-13T00:31:39;3.75;;;3.17;;
27199;SDS011;14714;48.106;11.546;2023-07-13T00:34:06;9.18;;;3.63;;
27199;SDS011;14714;48.106;11.546;2023-07-13T00:36:33;4.15;;;2.90;;
27199;SDS011;14714;48.106;11.546;2023-07-13T00:39:00;5.25;;;3.25;;
27199;SDS011;14714;48.106;11.546;2023-07-13T00:41:27;8.90;;;4.10;;
27199;SDS011;14714;48.106;11.546;2023-07-13T00:43:54;6.32;;;3.70;;
27199;SDS011;14714;48.106;11.546;2023-07-13T00:46:22;4.75;;;3.75;;
27199;SDS011;14714;48.106;11.546;2023-07-13T00:48:51;6.68;;;3.40;;
27199;SDS011;14714;48.106;11.546;2023-07-13T00:51:22;7.37;;;3.50;;
27199;SDS011;14714;48.106;11.546;2023-07-13T00:53:53;5.28;;;3.78;;
27199;SDS011;14714;48.106;11.546;2023-07-13T00:56:22;5.30;;;3.22;;
27199;SDS011;14714;48.106;11.546;2023-07-13T00:58:50;5.45;;;3.10;;
27199;SDS011;14714;48.106;11.546;2023-07-13T01:01:17;8.45;;;3.80;;
27199;SDS011;14714;48.106;11.546;2023-07-13T01:03:44;9.10;;;5.25;;
27199;SDS011;14714;48.106;11.546;2023-07-13T01:06:12;7.63;;;5.07;;
27199;SDS011;14714;48.106;11.546;2023-07-13T01:08:40;8.77;;;4.57;;
27199;SDS011;14714;48.106;11.546;2023-07-13T01:11:07;6.97;;;4.20;;
27199;SDS011;14714;48.106;11.546;2023-07-13T01:13:34;6.47;;;4.20;;
27199;SDS011;14714;48.106;11.546;2023-07-13T01:16:02;6.70;;;4.07;;
27199;SDS011;14714;48.106;11.546;2023-07-13T01:18:37;5.63;;;3.85;;
27199;SDS011;14714;48.106;11.546;2023-07-13T01:21:04;4.65;;;3.50;;
27199;SDS011;14714;48.106;11.546;2023-07-13T01:23:32;7.07;;;3.70;;
27199;SDS011;14714;48.106;11.546;2023-07-13T01:25:59;4.65;;;3.33;;
27199;SDS011;14714;48.106;11.546;2023-07-13T01:28:26;4.28;;;3.38;;
27199;SDS011;14714;48.106;11.546;2023-07-13T01:30:55;6.28;;;3.50;;
27199;SDS011;14714;48.106;11.546;2023-07-13T01:33:24;6.72;;;3.00;;
27199;SDS011;14714;48.106;11.546;2023-07-13T01:35:51;5.80;;;3.13;;
27199;SDS011;14714;48.106;11.546;2023-07-13T01:38:19;4.63;;;3.20;;
27199;SDS011;14714;48.106;11.546;2023-07-13T01:40:49;3.72;;;2.60;;
27199;SDS011;14714;48.106;11.546;2023-07-13T01:43:16;4.13;;;2.60;;
27199;SDS011;14714;48.106;11.546;2023-07-13T01:45:44;5.28;;;2.90;;
27199;SDS011;14714;48.106;11.546;2023-07-13T01:48:12;3.35;;;2.92;;
27199;SDS011;14714;48.106;11.546;2023-07-13T01:50:39;4.35;;;2.88;;
27199;SDS011;14714;48.106;11.546;2023-07-13T01:53:07;3.92;;;2.70;;
27199;SDS011;14714;48.106;11.546;2023-07-13T01:55:34;5.93;;;2.97;;
27199;SDS011;14714;48.106;11.546;2023-07-13T01:58:02;5.28;;;2.80;;
27199;SDS011;14714;48.106;11.546;2023-07-13T02:00:29;3.92;;;2.70;;
27199;SDS011;14714;48.106;11.546;2023-07-13T02:02:57;3.33;;;2.80;;
27199;SDS011;14714;48.106;11.546;2023-07-13T02:05:24;4.20;;;2.80;;
27199;SDS011;14714;48.106;11.546;2023-07-13T02:07:51;6.85;;;2.90;;
27199;SDS011;14714;48.106;11.546;2023-07-13T02:10:19;3.90;;;2.72;;
27199;SDS011;14714;48.106;11.546;2023-07-13T02:12:47;4.07;;;3.03;;
27199;SDS011;14714;48.106;11.546;2023-07-13T02:15:15;5.37;;;2.97;;
27199;SDS011;14714;48.106;11.546;2023-07-13T02:17:43;3.42;;;2.75;;
27199;SDS011;14714;48.106;11.546;2023-07-13T02:20:10;3.75;;;2.65;;
27199;SDS011;14714;48.106;11.546;2023-07-13T02:22:37;3.70;;;3.00;;
27199;SDS011;14714;48.106;11.546;2023-07-13T02:25:04;5.88;;;3.08;;
27199;SDS011;14714;48.106;11.546;2023-07-13T02:27:31;5.65;;;3.20;;
27199;SDS011;14714;48.106;11.546;2023-07-13T02:29:58;3.45;;;2.88;;
27199;SDS011;14714;48.106;11.546;2023-07-13T02:32:25;4.82;;;3.00;;
27199;SDS011;14714;48.106;11.546;2023-07-13T02:34:52;4.75;;;3.10;;
27199;SDS011;14714;48.106;11.546;2023-07-13T02:37:19;3.78;;;2.92;;
27199;SDS011;14714;48.106;11.546;2023-07-13T02:39:46;3.58;;;2.63;;
27199;SDS011;14714;48.106;11.546;2023-07-13T02:42:14;4.30;;;2.83;;
27199;SDS011;14714;48.106;11.546;2023-07-13T02:44:41;4.25;;;3.08;;
27199;SDS011;14714;48.106;11.546;2023-07-13T02:47:08;4.82;;;3.03;;
27199;SDS011;14714;48.106;11.546;2023-07-13T02:49:34;5.60;;;3.20;;
27199;SDS011;14714;48.106;11.546;2023-07-13T02:52:02;4.13;;;3.20;;
27199;SDS011;14714;48.106;11.546;2023-07-13T02:54:30;3.63;;;2.80;;
27199;SDS011;14714;48.106;11.546;2023-07-13T02:56:56;5.10;;;3.33;;
27199;SDS011;14714;48.106;11.546;2023-07-13T02:59:23;5.32;;;3.13;;
27199;SDS011;14714;48.106;11.546;2023-07-13T03:01:50;4.75;;;3.50;;
27199;SDS011;14714;48.106;11.546;2023-07-13T03:04:18;5.97;;;3.83;;
27199;SDS011;14714;48.106;11.546;2023-07-13T03:06:46;7.22;;;4.28;;
27199;SDS011;14714;48.106;11.546;2023-07-13T03:09:13;5.00;;;3.30;;
27199;SDS011;14714;48.106;11.546;2023-07-13T03:11:40;5.78;;;3.97;;
27199;SDS011;14714;48.106;11.546;2023-07-13T03:14:07;5.30;;;3.60;;
27199;SDS011;14714;48.106;11.546;2023-07-13T03:16:34;7.75;;;3.60;;
27199;SDS011;14714;48.106;11.546;2023-07-13T03:19:01;7.80;;;4.20;;
27199;SDS011;14714;48.106;11.546;2023-07-13T03:21:28;13.23;;;4.10;;
27199;SDS011;14714;48.106;11.546;2023-07-13T03:23:55;6.13;;;3.85;;
27199;SDS011;14714;48.106;11.546;2023-07-13T03:26:22;5.93;;;4.25;;
27199;SDS011;14714;48.106;11.546;2023-07-13T03:28:49;7.10;;;4.10;;
27199;SDS011;14714;48.106;11.546;2023-07-13T03:31:17;6.00;;;4.00;;
27199;SDS011;14714;48.106;11.546;2023-07-13T03:33:46;9.32;;;3.80;;
27199;SDS011;14714;48.106;11.546;2023-07-13T03:36:15;7.28;;;3.65;;
27199;SDS011;14714;48.106;11.546;2023-07-13T03:38:47;6.28;;;4.22;;
27199;SDS011;14714;48.106;11.546;2023-07-13T03:41:16;6.53;;;3.97;;
27199;SDS011;14714;48.106;11.546;2023-07-13T03:43:43;4.85;;;3.40;;
27199;SDS011;14714;48.106;11.546;2023-07-13T03:46:10;5.70;;;3.42;;
27199;SDS011;14714;48.106;11.546;2023-07-13T03:48:37;6.35;;;4.00;;
27199;SDS011;14714;48.106;11.546;2023-07-13T03:51:06;5.03;;;3.00;;
27199;SDS011;14714;48.106;11.546;2023-07-13T03:53:33;9.55;;;3.90;;
27199;SDS011;14714;48.106;11.546;2023-07-13T03:56:01;5.60;;;4.10;;
27199;SDS011;14714;48.106;11.546;2023-07-13T03:58:30;7.93;;;4.18;;
27199;SDS011;14714;48.106;11.546;2023-07-13T04:00:57;10.30;;;4.30;;
27199;SDS011;14714;48.106;11.546;2023-07-13T04:03:25;8.00;;;4.00;;
27199;SDS011;14714;48.106;11.546;2023-07-13T04:05:54;6.32;;;3.92;;
27199;SDS011;14714;48.106;11.546;2023-07-13T04:08:26;7.63;;;3.92;;
27199;SDS011;14714;48.106;11.546;2023-07-13T04:10:57;6.22;;;3.92;;
27199;SDS011;14714;48.106;11.546;2023-07-13T04:13:25;9.40;;;3.40;;
27199;SDS011;14714;48.106;11.546;2023-07-13T04:15:53;6.55;;;3.50;;
27199;SDS011;14714;48.106;11.546;2023-07-13T04:18:20;6.03;;;3.33;;
27199;SDS011;14714;48.106;11.546;2023-07-13T04:20:47;8.50;;;3.72;;
27199;SDS011;14714;48.106;11.546;2023-07-13T04:23:16;4.90;;;3.63;;
27199;SDS011;14714;48.106;11.546;2023-07-13T04:25:44;4.57;;;3.30;;
27199;SDS011;14714;48.106;11.546;2023-07-13T04:28:16;6.88;;;4.10;;
27199;SDS011;14714;48.106;11.546;2023-07-13T04:30:44;4.90;;;3.38;;
27199;SDS011;14714;48.106;11.546;2023-07-13T04:33:11;5.65;;;3.40;;
27199;SDS011;14714;48.106;11.546;2023-07-13T04:35:38;5.72;;;3.55;;
27199;SDS011;14714;48.106;11.546;2023-07-13T04:38:05;4.75;;;3.50;;
27199;SDS011;14714;48.106;11.546;2023-07-13T04:40:32;5.25;;;3.70;;
27199;SDS011;14714;48.106;11.546;2023-07-13T04:42:59;7.07;;;3.83;;
27199;SDS011;14714;48.106;11.546;2023-07-13T04:45:26;4.75;;;3.20;;
27199;SDS011;14714;48.106;11.546;2023-07-13T04:47:53;6.68;;;3.67;;
27199;SDS011;14714;48.106;11.546;2023-07-13T04:50:19;5.28;;;3.50;;
27199;SDS011;14714;48.106;11.546;2023-07-13T04:52:50;5.72;;;3.55;;
27199;SDS011;14714;48.106;11.546;2023-07-13T04:55:18;8.20;;;3.95;;
27199;SDS011;14714;48.106;11.546;2023-07-13T04:57:45;5.05;;;3.70;;
27199;SDS011;14714;48.106;11.546;2023-07-13T05:00:13;6.10;;;3.80;;
27199;SDS011;14714;48.106;11.546;2023-07-13T05:02:43;6.32;;;4.00;;
27199;SDS011;14714;48.106;11.546;2023-07-13T05:05:10;5.50;;;3.55;;
27199;SDS011;14714;48.106;11.546;2023-07-13T05:07:37;5.85;;;3.38;;
27199;SDS011;14714;48.106;11.546;2023-07-13T05:10:04;4.07;;;3.15;;
27199;SDS011;14714;48.106;11.546;2023-07-13T05:12:31;5.55;;;3.08;;
27199;SDS011;14714;48.106;11.546;2023-07-13T05:14:58;4.43;;;3.30;;
27199;SDS011;14714;48.106;11.546;2023-07-13T05:17:25;7.10;;;3.63;;
27199;SDS011;14714;48.106;11.546;2023-07-13T05:19:52;4.07;;;3.17;;
27199;SDS011;14714;48.106;11.546;2023-07-13T05:22:19;5.28;;;3.08;;
27199;SDS011;14714;48.106;11.546;2023-07-13T05:24:45;8.02;;;3.05;;
27199;SDS011;14714;48.106;11.546;2023-07-13T05:27:12;7.45;;;3.45;;
27199;SDS011;14714;48.106;11.546;2023-07-13T05:29:39;5.75;;;3.22;;
27199;SDS011;14714;48.106;11.546;2023-07-13T05:32:06;3.40;;;2.90;;
27199;SDS011;14714;48.106;11.546;2023-07-13T05:34:33;4.88;;;3.30;;
27199;SDS011;14714;48.106;11.546;2023-07-13T05:37:00;4.78;;;2.85;;
27199;SDS011;14714;48.106;11.546;2023-07-13T05:39:27;4.65;;;3.20;;
27199;SDS011;14714;48.106;11.546;2023-07-13T05:41:54;5.68;;;3.03;;
27199;SDS011;14714;48.106;11.546;2023-07-13T05:44:21;4.85;;;3.42;;
27199;SDS011;14714;48.106;11.546;2023-07-13T05:46:47;7.72;;;3.75;;
27199;SDS011;14714;48.106;11.546;2023-07-13T05:49:14;6.13;;;3.15;;
27199;SDS011;14714;48.106;11.546;2023-07-13T05:51:41;5.97;;;3.58;;
27199;SDS011;14714;48.106;11.546;2023-07-13T05:54:09;5.70;;;3.70;;
27199;SDS011;14714;48.106;11.546;2023-07-13T05:56:36;17.30;;;4.05;;
27199;SDS011;14714;48.106;11.546;2023-07-13T05:59:02;6.75;;;3.83;;
27199;SDS011;14714;48.106;11.546;2023-07-13T06:01:29;11.80;;;4.05;;
27199;SDS011;14714;48.106;11.546;2023-07-13T06:03:57;11.05;;;4.05;;
27199;SDS011;14714;48.106;11.546;2023-07-13T06:06:24;10.68;;;3.60;;
27199;SDS011;14714;48.106;11.546;2023-07-13T06:08:51;7.38;;;3.78;;
27199;SDS011;14714;48.106;11.546;2023-07-13T06:11:22;6.78;;;3.78;;
27199;SDS011;14714;48.106;11.546;2023-07-13T06:13:50;4.07;;;3.00;;
27199;SDS011;14714;48.106;11.546;2023-07-13T06:16:17;6.22;;;3.40;;
27199;SDS011;14714;48.106;11.546;2023-07-13T06:18:44;7.45;;;3.67;;
27199;SDS011;14714;48.106;11.546;2023-07-13T06:21:14;5.82;;;3.33;;
27199;SDS011;14714;48.106;11.546;2023-07-13T06:23:43;4.93;;;3.20;;
27199;SDS011;14714;48.106;11.546;2023-07-13T06:26:11;5.55;;;3.17;;
27199;SDS011;14714;48.106;11.546;2023-07-13T06:28:38;4.57;;;2.97;;
27199;SDS011;14714;48.106;11.546;2023-07-13T06:31:06;3.55;;;2.72;;
27199;SDS011;14714;48.106;11.546;2023-07-13T06:33:34;6.63;;;2.90;;
27199;SDS011;14714;48.106;11.546;2023-07-13T06:36:02;5.93;;;3.38;;
27199;SDS011;14714;48.106;11.546;2023-07-13T06:38:30;5.25;;;3.10;;
27199;SDS011;14714;48.106;11.546;2023-07-13T06:40:57;6.75;;;3.08;;
27199;SDS011;14714;48.106;11.546;2023-07-13T06:43:24;6.00;;;3.33;;
27199;SDS011;14714;48.106;11.546;2023-07-13T06:45:51;7.20;;;3.08;;
27199;SDS011;14714;48.106;11.546;2023-07-13T06:48:20;5.00;;;3.17;;
27199;SDS011;14714;48.106;11.546;2023-07-13T06:50:47;5.72;;;3.38;;
27199;SDS011;14714;48.106;11.546;2023-07-13T06:53:16;5.70;;;3.17;;
27199;SDS011;14714;48.106;11.546;2023-07-13T06:55:44;8.45;;;3.30;;
27199;SDS011;14714;48.106;11.546;2023-07-13T06:58:12;5.68;;;3.00;;
27199;SDS011;14714;48.106;11.546;2023-07-13T07:00:39;7.22;;;3.00;;
27199;SDS011;14714;48.106;11.546;2023-07-13T07:03:06;5.35;;;2.80;;
27199;SDS011;14714;48.106;11.546;2023-07-13T07:05:33;6.70;;;3.20;;
27199;SDS011;14714;48.106;11.546;2023-07-13T07:08:00;6.50;;;3.10;;
27199;SDS011;14714;48.106;11.546;2023-07-13T07:10:28;5.55;;;2.78;;
27199;SDS011;14714;48.106;11.546;2023-07-13T07:12:56;5.90;;;2.78;;
27199;SDS011;14714;48.106;11.546;2023-07-13T07:15:23;4.90;;;2.80;;
27199;SDS011;14714;48.106;11.546;2023-07-13T07:17:49;6.18;;;2.80;;
27199;SDS011;14714;48.106;11.546;2023-07-13T07:20:16;8.88;;;2.78;;
27199;SDS011;14714;48.106;11.546;2023-07-13T07:22:43;3.70;;;2.50;;
27199;SDS011;14714;48.106;11.546;2023-07-13T07:25:10;6.05;;;2.50;;
27199;SDS011;14714;48.106;11.546;2023-07-13T07:27:37;6.20;;;2.67;;
27199;SDS011;14714;48.106;11.546;2023-07-13T07:30:07;8.60;;;2.80;;
27199;SDS011;14714;48.106;11.546;2023-07-13T07:32:37;5.63;;;3.00;;
27199;SDS011;14714;48.106;11.546;2023-07-13T07:35:07;6.15;;;2.70;;
27199;SDS011;14714;48.106;11.546;2023-07-13T07:37:34;4.63;;;2.50;;
27199;SDS011;14714;48.106;11.546;2023-07-13T07:40:04;4.78;;;2.80;;
27199;SDS011;14714;48.106;11.546;2023-07-13T07:42:34;6.15;;;2.95;;
27199;SDS011;14714;48.106;11.546;2023-07-13T07:45:01;4.97;;;2.60;;
27199;SDS011;14714;48.106;11.546;2023-07-13T07:47:28;5.65;;;2.60;;
27199;SDS011;14714;48.106;11.546;2023-07-13T07:49:55;7.88;;;3.03;;
27199;SDS011;14714;48.106;11.546;2023-07-13T07:52:22;7.95;;;3.15;;
27199;SDS011;14714;48.106;11.546;2023-07-13T07:54:49;8.25;;;3.10;;
27199;SDS011;14714;48.106;11.546;2023-07-13T07:57:19;5.53;;;2.78;;
27199;SDS011;14714;48.106;11.546;2023-07-13T08:00:06;4.22;;;2.45;;
27199;SDS011;14714;48.106;11.546;2023-07-13T08:05:06;5.53;;;2.97;;
27199;SDS011;14714;48.106;11.546;2023-07-13T08:07:37;7.57;;;3.15;;
27199;SDS011;14714;48.106;11.546;2023-07-13T08:10:05;5.32;;;2.90;;
27199;SDS011;14714;48.106;11.546;2023-07-13T08:12:34;6.70;;;3.38;;
27199;SDS011;14714;48.106;11.546;2023-07-13T08:15:10;4.13;;;2.80;;
27199;SDS011;14714;48.106;11.546;2023-07-13T08:17:38;5.35;;;2.95;;
27199;SDS011;14714;48.106;11.546;2023-07-13T08:20:05;7.80;;;3.30;;
27199;SDS011;14714;48.106;11.546;2023-07-13T08:22:33;9.15;;;3.70;;
27199;SDS011;14714;48.106;11.546;2023-07-13T08:25:00;8.27;;;3.13;;
27199;SDS011;14714;48.106;11.546;2023-07-13T08:27:27;7.68;;;3.38;;
27199;SDS011;14714;48.106;11.546;2023-07-13T08:29:55;9.02;;;3.33;;
27199;SDS011;14714;48.106;11.546;2023-07-13T08:32:22;6.47;;;3.45;;
27199;SDS011;14714;48.106;11.546;2023-07-13T08:34:49;6.97;;;3.50;;
27199;SDS011;14714;48.106;11.546;2023-07-13T08:37:17;8.02;;;3.17;;
27199;SDS011;14714;48.106;11.546;2023-07-13T08:39:44;6.18;;;2.97;;
27199;SDS011;14714;48.106;11.546;2023-07-13T08:48:03;7.78;;;3.30;;
27199;SDS011;14714;48.106;11.546;2023-07-13T08:50:48;7.15;;;2.85;;
27199;SDS011;14714;48.106;11.546;2023-07-13T08:53:30;6.78;;;3.10;;
27199;SDS011;14714;48.106;11.546;2023-07-13T08:56:03;6.18;;;3.05;;
27199;SDS011;14714;48.106;11.546;2023-07-13T08:58:33;9.38;;;3.15;;
27199;SDS011;14714;48.106;11.546;2023-07-13T09:01:15;4.82;;;2.70;;
27199;SDS011;14714;48.106;11.546;2023-07-13T09:04:03;6.60;;;3.10;;
27199;SDS011;14714;48.106;11.546;2023-07-13T09:06:35;4.45;;;2.70;;
27199;SDS011;14714;48.106;11.546;2023-07-13T09:12:26;7.05;;;2.88;;
27199;SDS011;14714;48.106;11.546;2023-07-13T09:15:45;7.90;;;2.90;;
27199;SDS011;14714;48.106;11.546;2023-07-13T09:18:14;4.95;;;2.42;;
27199;SDS011;14714;48.106;11.546;2023-07-13T09:20:52;7.22;;;3.10;;
27199;SDS011;14714;48.106;11.546;2023-07-13T09:23:24;8.27;;;2.88;;
27199;SDS011;14714;48.106;11.546;2023-07-13T09:26:05;5.55;;;3.10;;
27199;SDS011;14714;48.106;11.546;2023-07-13T09:28:41;6.53;;;2.88;;
27199;SDS011;14714;48.106;11.546;2023-07-13T09:36:24;8.77;;;2.92;;
27199;SDS011;14714;48.106;11.546;2023-07-13T09:39:04;8.63;;;2.80;;
27199;SDS011;14714;48.106;11.546;2023-07-13T09:41:45;8.02;;;2.58;;
27199;SDS011;14714;48.106;11.546;2023-07-13T09:44:15;8.70;;;2.88;;
27199;SDS011;14714;48.106;11.546;2023-07-13T09:46:45;5.97;;;2.67;;
27199;SDS011;14714;48.106;11.546;2023-07-13T09:49:14;6.32;;;2.40;;
27199;SDS011;14714;48.106;11.546;2023-07-13T09:51:41;6.85;;;2.42;;
27199;SDS011;14714;48.106;11.546;2023-07-13T09:54:21;5.20;;;2.42;;
27199;SDS011;14714;48.106;11.546;2023-07-13T09:56:53;5.55;;;2.60;;
27199;SDS011;14714;48.106;11.546;2023-07-13T09:59:35;6.05;;;2.58;;
27199;SDS011;14714;48.106;11.546;2023-07-13T10:05:06;4.80;;;2.35;;
27199;SDS011;14714;48.106;11.546;2023-07-13T10:07:44;7.50;;;2.30;;
27199;SDS011;14714;48.106;11.546;2023-07-13T10:10:15;4.93;;;2.15;;
27199;SDS011;14714;48.106;11.546;2023-07-13T10:12:44;7.45;;;2.47;;
27199;SDS011;14714;48.106;11.546;2023-07-13T10:15:16;5.80;;;2.22;;
27199;SDS011;14714;48.106;11.546;2023-07-13T10:17:50;8.80;;;2.42;;
27199;SDS011;14714;48.106;11.546;2023-07-13T10:20:21;6.82;;;2.17;;
27199;SDS011;14714;48.106;11.546;2023-07-13T10:25:33;4.75;;;2.10;;
27199;SDS011;14714;48.106;11.546;2023-07-13T10:28:06;6.88;;;1.83;;
27199;SDS011;14714;48.106;11.546;2023-07-13T10:30:59;8.57;;;2.10;;
27199;SDS011;14714;48.106;11.546;2023-07-13T10:33:27;6.93;;;1.90;;
27199;SDS011;14714;48.106;11.546;2023-07-13T10:35:57;8.02;;;1.98;;
27199;SDS011;14714;48.106;11.546;2023-07-13T10:38:42;5.82;;;1.73;;
27199;SDS011;14714;48.106;11.546;2023-07-13T10:41:11;4.43;;;2.10;;
27199;SDS011;14714;48.106;11.546;2023-07-13T10:43:50;8.45;;;2.00;;
27199;SDS011;14714;48.106;11.546;2023-07-13T10:46:19;4.53;;;1.73;;
27199;SDS011;14714;48.106;11.546;2023-07-13T10:48:51;3.58;;;1.88;;
27199;SDS011;14714;48.106;11.546;2023-07-13T10:51:20;5.10;;;1.70;;
27199;SDS011;14714;48.106;11.546;2023-07-13T10:54:10;5.10;;;1.80;;
27199;SDS011;14714;48.106;11.546;2023-07-13T10:56:49;7.82;;;1.90;;
27199;SDS011;14714;48.106;11.546;2023-07-13T10:59:20;5.35;;;1.42;;
27199;SDS011;14714;48.106;11.546;2023-07-13T11:01:58;6.82;;;1.83;;
27199;SDS011;14714;48.106;11.546;2023-07-13T11:04:46;4.95;;;1.60;;
27199;SDS011;14714;48.106;11.546;2023-07-13T11:07:32;3.60;;;2.05;;
27199;SDS011;14714;48.106;11.546;2023-07-13T11:10:45;5.03;;;1.65;;
27199;SDS011;14714;48.106;11.546;2023-07-13T11:19:37;3.42;;;1.77;;
27199;SDS011;14714;48.106;11.546;2023-07-13T11:30:31;3.95;;;1.60;;
27199;SDS011;14714;48.106;11.546;2023-07-13T11:33:23;3.42;;;1.73;;
27199;SDS011;14714;48.106;11.546;2023-07-13T11:38:39;5.55;;;2.20;;
27199;SDS011;14714;48.106;11.546;2023-07-13T11:44:14;3.58;;;1.70;;
27199;SDS011;14714;48.106;11.546;2023-07-13T11:46:49;4.22;;;1.70;;
27199;SDS011;14714;48.106;11.546;2023-07-13T11:49:21;3.10;;;1.60;;
27199;SDS011;14714;48.106;11.546;2023-07-13T11:51:50;3.95;;;1.60;;
27199;SDS011;14714;48.106;11.546;2023-07-13T11:54:28;8.60;;;1.92;;
27199;SDS011;14714;48.106;11.546;2023-07-13T11:57:15;3.88;;;1.70;;
27199;SDS011;14714;48.106;11.546;2023-07-13T11:59:46;2.83;;;1.75;;
27199;SDS011;14714;48.106;11.546;2023-07-13T12:02:14;5.05;;;1.77;;
27199;SDS011;14714;48.106;11.546;2023-07-13T12:04:52;5.43;;;1.80;;
27199;SDS011;14714;48.106;11.546;2023-07-13T12:07:19;7.30;;;1.90;;
27199;SDS011;14714;48.106;11.546;2023-07-13T12:09:46;4.57;;;1.80;;
27199;SDS011;14714;48.106;11.546;2023-07-13T12:12:14;4.15;;;1.73;;
27199;SDS011;14714;48.106;11.546;2023-07-13T12:14:44;4.22;;;1.80;;
27199;SDS011;14714;48.106;11.546;2023-07-13T12:17:20;5.07;;;1.98;;
27199;SDS011;14714;48.106;11.546;2023-07-13T12:19:50;3.72;;;1.90;;
27199;SDS011;14714;48.106;11.546;2023-07-13T12:22:19;5.55;;;1.60;;
27199;SDS011;14714;48.106;11.546;2023-07-13T12:24:47;3.67;;;1.80;;
27199;SDS011;14714;48.106;11.546;2023-07-13T12:27:24;9.57;;;1.80;;
27199;SDS011;14714;48.106;11.546;2023-07-13T12:32:27;6.40;;;1.75;;
27199;SDS011;14714;48.106;11.546;2023-07-13T12:37:58;6.20;;;2.03;;
27199;SDS011;14714;48.106;11.546;2023-07-13T12:40:36;3.70;;;1.88;;
27199;SDS011;14714;48.106;11.546;2023-07-13T12:43:03;3.00;;;1.70;;
27199;SDS011;14714;48.106;11.546;2023-07-13T12:45:32;4.87;;;1.80;;
27199;SDS011;14714;48.106;11.546;2023-07-13T12:48:10;5.57;;;2.10;;
27199;SDS011;14714;48.106;11.546;2023-07-13T12:50:41;4.15;;;1.85;;
27199;SDS011;14714;48.106;11.546;2023-07-13T12:53:13;5.65;;;1.80;;
27199;SDS011;14714;48.106;11.546;2023-07-13T12:55:49;3.17;;;1.70;;
27199;SDS011;14714;48.106;11.546;2023-07-13T12:58:40;3.83;;;1.67;;
27199;SDS011;14714;48.106;11.546;2023-07-13T13:01:10;3.45;;;1.70;;
27199;SDS011;14714;48.106;11.546;2023-07-13T13:03:41;6.90;;;1.90;;
27199;SDS011;14714;48.106;11.546;2023-07-13T13:08:55;7.00;;;2.10;;
27199;SDS011;14714;48.106;11.546;2023-07-13T13:11:29;3.25;;;1.67;;
27199;SDS011;14714;48.106;11.546;2023-07-13T13:13:57;2.80;;;1.80;;
27199;SDS011;14714;48.106;11.546;2023-07-13T13:19:15;4.72;;;1.83;;
27199;SDS011;14714;48.106;11.546;2023-07-13T13:21:48;8.40;;;1.98;;
27199;SDS011;14714;48.106;11.546;2023-07-13T13:24:19;5.80;;;1.90;;
27199;SDS011;14714;48.106;11.546;2023-07-13T13:26:48;6.27;;;2.20;;
27199;SDS011;14714;48.106;11.546;2023-07-13T13:29:18;3.03;;;1.85;;
27199;SDS011;14714;48.106;11.546;2023-07-13T13:31:52;5.22;;;2.03;;
27199;SDS011;14714;48.106;11.546;2023-07-13T13:34:20;5.10;;;2.15;;
27199;SDS011;14714;48.106;11.546;2023-07-13T13:36:52;6.93;;;2.10;;
27199;SDS011;14714;48.106;11.546;2023-07-13T13:39:29;6.57;;;2.20;;
27199;SDS011;14714;48.106;11.546;2023-07-13T13:42:01;6.60;;;1.75;;
27199;SDS011;14714;48.106;11.546;2023-07-13T13:44:28;6.47;;;1.70;;
27199;SDS011;14714;48.106;11.546;2023-07-13T13:46:55;4.18;;;1.67;;
27199;SDS011;14714;48.106;11.546;2023-07-13T13:49:26;5.85;;;1.77;;
27199;SDS011;14714;48.106;11.546;2023-07-13T13:51:53;8.38;;;2.13;;
27199;SDS011;14714;48.106;11.546;2023-07-13T13:54:21;4.22;;;1.60;;
27199;SDS011;14714;48.106;11.546;2023-07-13T13:56:49;5.03;;;1.90;;
27199;SDS011;14714;48.106;11.546;2023-07-13T13:59:18;3.88;;;1.88;;
27199;SDS011;14714;48.106;11.546;2023-07-13T14:01:46;3.42;;;1.95;;
27199;SDS011;14714;48.106;11.546;2023-07-13T14:04:18;2.70;;;1.92;;
27199;SDS011;14714;48.106;11.546;2023-07-13T14:09:16;4.60;;;1.50;;
27199;SDS011;14714;48.106;11.546;2023-07-13T14:11:45;5.25;;;1.58;;
27199;SDS011;14714;48.106;11.546;2023-07-13T14:14:17;2.85;;;1.88;;
27199;SDS011;14714;48.106;11.546;2023-07-13T14:16:46;3.80;;;1.98;;
27199;SDS011;14714;48.106;11.546;2023-07-13T14:19:20;3.92;;;1.80;;
27199;SDS011;14714;48.106;11.546;2023-07-13T14:21:47;7.20;;;1.70;;
27199;SDS011;14714;48.106;11.546;2023-07-13T14:24:15;5.50;;;1.70;;
27199;SDS011;14714;48.106;11.546;2023-07-13T14:26:42;3.63;;;1.88;;
27199;SDS011;14714;48.106;11.546;2023-07-13T14:29:16;4.72;;;1.85;;
27199;SDS011;14714;48.106;11.546;2023-07-13T14:34:19;5.07;;;1.70;;
27199;SDS011;14714;48.106;11.546;2023-07-13T14:36:47;3.15;;;1.70;;
27199;SDS011;14714;48.106;11.546;2023-07-13T14:39:17;3.60;;;1.80;;
27199;SDS011;14714;48.106;11.546;2023-07-13T14:41:45;3.67;;;1.83;;
27199;SDS011;14714;48.106;11.546;2023-07-13T14:44:17;4.18;;;2.00;;
27199;SDS011;14714;48.106;11.546;2023-07-13T14:49:33;6.05;;;2.10;;
27199;SDS011;14714;48.106;11.546;2023-07-13T14:52:05;2.72;;;1.83;;
27199;SDS011;14714;48.106;11.546;2023-07-13T14:54:41;2.75;;;1.60;;
27199;SDS011;14714;48.106;11.546;2023-07-13T14:57:11;6.35;;;1.90;;
27199;SDS011;14714;48.106;11.546;2023-07-13T14:59:39;5.60;;;1.73;;
27199;SDS011;14714;48.106;11.546;2023-07-13T15:02:16;4.30;;;1.70;;
27199;SDS011;14714;48.106;11.546;2023-07-13T15:04:51;6.22;;;1.88;;
27199;SDS011;14714;48.106;11.546;2023-07-13T15:07:18;3.28;;;1.95;;
27199;SDS011;14714;48.106;11.546;2023-07-13T15:09:47;2.72;;;1.90;;
27199;SDS011;14714;48.106;11.546;2023-07-13T15:12:14;3.40;;;1.80;;
27199;SDS011;14714;48.106;11.546;2023-07-13T15:14:41;4.70;;;1.80;;
27199;SDS011;14714;48.106;11.546;2023-07-13T15:17:27;5.95;;;1.90;;
27199;SDS011;14714;48.106;11.546;2023-07-13T15:20:06;4.18;;;1.70;;
27199;SDS011;14714;48.106;11.546;2023-07-13T15:22:59;4.47;;;2.17;;
27199;SDS011;14714;48.106;11.546;2023-07-13T15:25:27;3.25;;;1.77;;
27199;SDS011;14714;48.106;11.546;2023-07-13T15:27:57;5.28;;;1.98;;
27199;SDS011;14714;48.106;11.546;2023-07-13T15:30:28;3.17;;;1.63;;
27199;SDS011;14714;48.106;11.546;2023-07-13T15:32:58;3.92;;;2.33;;
27199;SDS011;14714;48.106;11.546;2023-07-13T15:35:33;4.85;;;1.60;;
27199;SDS011;14714;48.106;11.546;2023-07-13T15:38:00;3.40;;;1.65;;
27199;SDS011;14714;48.106;11.546;2023-07-13T15:40:27;3.70;;;1.80;;
27199;SDS011;14714;48.106;11.546;2023-07-13T15:42:54;3.97;;;1.73;;
27199;SDS011;14714;48.106;11.546;2023-07-13T15:45:22;3.97;;;1.58;;
27199;SDS011;14714;48.106;11.546;2023-07-13T15:47:54;4.85;;;1.90;;
27199;SDS011;14714;48.106;11.546;2023-07-13T15:50:22;4.75;;;1.90;;
27199;SDS011;14714;48.106;11.546;2023-07-13T15:52:54;3.08;;;1.80;;